Atlanta, Georgia
Traffic Map
Current Weather Conditions
Atlanta, Georgia
Overcast Light Rain
Overcast
63°
Feels Like: 63°
Wind Chill: 63° Ceiling: 300
Heat Index: 63° Visibility: 0.5mi
Dew Point: 61° Wind: 6mph
Humidity: 93% Direction: 50° (NE)
Pressure: 29.98in Gusts: 0mph
Raw Report DataKATL 181052Z 05005KT 1/2SM -RA BR OVC003 17/16 A2998 RMK AO2 SFC VIS 4 SLP147 DZE26RAB26 P0002 T01720161
Traffic Incident Summary
Active as of:
Severity:
Category:
InformationThere was an issue retrieving the traffic information for this location. Please try a different location or try again shortly.
Advertisements
Track Severe Weather on mobile